sensor_id;sensor_type;location;lat;lon;timestamp;pressure;altitude;pressure_sealevel;temperature;humidity
77366;BME280;66430;50.182;11.704;2024-02-14T00:01:18;94987.50;;;5.78;39.04
77366;BME280;66430;50.182;11.704;2024-02-14T00:03:44;94982.51;;;6.01;39.21
77366;BME280;66430;50.182;11.704;2024-02-14T00:06:10;94977.27;;;6.05;39.08
77366;BME280;66430;50.182;11.704;2024-02-14T00:08:36;94981.13;;;6.15;38.80
77366;BME280;66430;50.182;11.704;2024-02-14T00:11:01;94987.03;;;6.01;39.16
77366;BME280;66430;50.182;11.704;2024-02-14T00:13:27;94984.50;;;6.18;38.67
77366;BME280;66430;50.182;11.704;2024-02-14T00:15:57;94984.38;;;5.91;38.82
77366;BME280;66430;50.182;11.704;2024-02-14T00:18:17;94981.48;;;6.27;38.81
77366;BME280;66430;50.182;11.704;2024-02-14T00:20:43;94978.94;;;5.82;39.16
77366;BME280;66430;50.182;11.704;2024-02-14T00:23:08;94976.18;;;6.06;38.91
77366;BME280;66430;50.182;11.704;2024-02-14T00:25:35;94969.86;;;6.06;39.29
77366;BME280;66430;50.182;11.704;2024-02-14T00:28:00;94967.29;;;6.18;38.93
77366;BME280;66430;50.182;11.704;2024-02-14T00:30:25;94967.96;;;6.29;38.86
77366;BME280;66430;50.182;11.704;2024-02-14T00:32:51;94968.19;;;6.31;39.02
77366;BME280;66430;50.182;11.704;2024-02-14T00:35:16;94962.63;;;5.95;39.05
77366;BME280;66430;50.182;11.704;2024-02-14T00:37:43;94960.35;;;6.30;39.01
77366;BME280;66430;50.182;11.704;2024-02-14T00:40:09;94956.84;;;5.92;38.51
77366;BME280;66430;50.182;11.704;2024-02-14T00:42:34;94956.17;;;6.52;38.38
77366;BME280;66430;50.182;11.704;2024-02-14T00:44:59;94957.20;;;6.38;38.27
77366;BME280;66430;50.182;11.704;2024-02-14T00:47:24;94961.64;;;5.99;38.65
77366;BME280;66430;50.182;11.704;2024-02-14T00:49:50;94964.40;;;5.98;38.97
77366;BME280;66430;50.182;11.704;2024-02-14T00:52:15;94965.29;;;5.65;39.29
77366;BME280;66430;50.182;11.704;2024-02-14T00:54:41;94962.61;;;6.19;38.75
77366;BME280;66430;50.182;11.704;2024-02-14T00:57:06;94963.13;;;5.67;39.16
77366;BME280;66430;50.182;11.704;2024-02-14T00:59:32;94958.38;;;6.05;39.01
77366;BME280;66430;50.182;11.704;2024-02-14T01:01:58;94962.74;;;6.23;38.87
77366;BME280;66430;50.182;11.704;2024-02-14T01:04:23;94966.43;;;6.16;39.20
77366;BME280;66430;50.182;11.704;2024-02-14T01:06:49;94964.07;;;6.27;38.93
77366;BME280;66430;50.182;11.704;2024-02-14T01:09:14;94961.06;;;6.17;38.89
77366;BME280;66430;50.182;11.704;2024-02-14T01:11:40;94959.83;;;6.18;38.98
77366;BME280;66430;50.182;11.704;2024-02-14T01:14:06;94957.87;;;6.35;38.92
77366;BME280;66430;50.182;11.704;2024-02-14T01:16:31;94961.92;;;6.02;38.69
77366;BME280;66430;50.182;11.704;2024-02-14T01:18:56;94960.25;;;6.40;38.68
77366;BME280;66430;50.182;11.704;2024-02-14T01:21:22;94959.55;;;6.32;38.25
77366;BME280;66430;50.182;11.704;2024-02-14T01:23:48;94961.21;;;6.43;38.15
77366;BME280;66430;50.182;11.704;2024-02-14T01:26:13;94955.91;;;6.53;37.89
77366;BME280;66430;50.182;11.704;2024-02-14T01:28:39;94959.01;;;6.49;38.08
77366;BME280;66430;50.182;11.704;2024-02-14T01:31:04;94957.97;;;6.56;38.07
77366;BME280;66430;50.182;11.704;2024-02-14T01:33:30;94956.79;;;6.82;37.84
77366;BME280;66430;50.182;11.704;2024-02-14T01:35:56;94957.86;;;6.48;37.91
77366;BME280;66430;50.182;11.704;2024-02-14T01:38:21;94957.40;;;6.52;37.83
77366;BME280;66430;50.182;11.704;2024-02-14T01:40:47;94955.86;;;6.55;37.88
77366;BME280;66430;50.182;11.704;2024-02-14T01:43:12;94956.40;;;6.55;38.25
77366;BME280;66430;50.182;11.704;2024-02-14T01:45:38;94950.73;;;6.58;38.02
77366;BME280;66430;50.182;11.704;2024-02-14T01:48:04;94946.69;;;6.50;38.37
77366;BME280;66430;50.182;11.704;2024-02-14T01:50:29;94946.77;;;6.37;38.20
77366;BME280;66430;50.182;11.704;2024-02-14T01:52:56;94941.62;;;6.88;38.27
77366;BME280;66430;50.182;11.704;2024-02-14T01:55:21;94938.71;;;6.96;37.99
77366;BME280;66430;50.182;11.704;2024-02-14T01:57:46;94937.42;;;6.26;37.99
77366;BME280;66430;50.182;11.704;2024-02-14T02:00:12;94941.67;;;6.88;38.14
77366;BME280;66430;50.182;11.704;2024-02-14T02:02:36;94935.13;;;6.42;38.20
77366;BME280;66430;50.182;11.704;2024-02-14T02:05:03;94935.39;;;5.96;38.69
77366;BME280;66430;50.182;11.704;2024-02-14T02:07:28;94935.82;;;6.24;38.36
77366;BME280;66430;50.182;11.704;2024-02-14T02:09:53;94932.95;;;6.13;38.48
77366;BME280;66430;50.182;11.704;2024-02-14T02:12:19;94928.88;;;6.22;38.34
77366;BME280;66430;50.182;11.704;2024-02-14T02:14:44;94927.52;;;6.19;38.56
77366;BME280;66430;50.182;11.704;2024-02-14T02:17:11;94924.89;;;5.49;39.28
77366;BME280;66430;50.182;11.704;2024-02-14T02:19:36;94927.80;;;6.34;38.53
77366;BME280;66430;50.182;11.704;2024-02-14T02:22:01;94924.80;;;6.08;38.27
77366;BME280;66430;50.182;11.704;2024-02-14T02:24:27;94926.00;;;6.46;38.21
77366;BME280;66430;50.182;11.704;2024-02-14T02:26:53;94925.69;;;6.29;38.17
77366;BME280;66430;50.182;11.704;2024-02-14T02:29:19;94925.03;;;6.29;38.26
77366;BME280;66430;50.182;11.704;2024-02-14T02:31:44;94920.65;;;6.76;38.05
77366;BME280;66430;50.182;11.704;2024-02-14T02:34:09;94918.84;;;6.01;38.13
77366;BME280;66430;50.182;11.704;2024-02-14T02:36:35;94917.97;;;6.68;38.17
77366;BME280;66430;50.182;11.704;2024-02-14T02:39:00;94913.79;;;6.55;37.86
77366;BME280;66430;50.182;11.704;2024-02-14T02:41:31;94914.63;;;6.35;38.41
77366;BME280;66430;50.182;11.704;2024-02-14T02:43:52;94913.04;;;6.21;38.03
77366;BME280;66430;50.182;11.704;2024-02-14T02:46:17;94908.86;;;6.25;37.92
77366;BME280;66430;50.182;11.704;2024-02-14T02:48:43;94907.34;;;6.44;37.80
77366;BME280;66430;50.182;11.704;2024-02-14T02:51:10;94899.08;;;6.41;37.70
77366;BME280;66430;50.182;11.704;2024-02-14T02:53:34;94889.85;;;6.43;37.61
77366;BME280;66430;50.182;11.704;2024-02-14T02:56:00;94885.28;;;6.36;37.86
77366;BME280;66430;50.182;11.704;2024-02-14T02:58:25;94884.29;;;6.92;37.84
77366;BME280;66430;50.182;11.704;2024-02-14T03:00:51;94881.41;;;5.69;38.73
77366;BME280;66430;50.182;11.704;2024-02-14T03:03:16;94882.25;;;6.57;38.36
77366;BME280;66430;50.182;11.704;2024-02-14T03:05:42;94879.25;;;6.12;38.08
77366;BME280;66430;50.182;11.704;2024-02-14T03:08:07;94879.09;;;6.46;37.93
77366;BME280;66430;50.182;11.704;2024-02-14T03:10:33;94876.34;;;6.36;37.88
77366;BME280;66430;50.182;11.704;2024-02-14T03:12:59;94873.00;;;6.62;37.92
77366;BME280;66430;50.182;11.704;2024-02-14T03:15:24;94868.82;;;5.66;39.11
77366;BME280;66430;50.182;11.704;2024-02-14T03:17:50;94870.57;;;5.50;39.23
77366;BME280;66430;50.182;11.704;2024-02-14T03:20:15;94872.54;;;5.66;39.04
77366;BME280;66430;50.182;11.704;2024-02-14T03:22:41;94872.51;;;6.13;38.58
77366;BME280;66430;50.182;11.704;2024-02-14T03:25:07;94874.57;;;6.34;38.04
77366;BME280;66430;50.182;11.704;2024-02-14T03:27:32;94873.48;;;6.40;38.32
77366;BME280;66430;50.182;11.704;2024-02-14T03:29:58;94872.00;;;6.12;38.36
77366;BME280;66430;50.182;11.704;2024-02-14T03:32:23;94869.77;;;5.87;38.62
77366;BME280;66430;50.182;11.704;2024-02-14T03:34:49;94870.12;;;6.09;38.07
77366;BME280;66430;50.182;11.704;2024-02-14T03:37:14;94868.33;;;6.24;38.38
77366;BME280;66430;50.182;11.704;2024-02-14T03:39:40;94863.54;;;6.14;38.28
77366;BME280;66430;50.182;11.704;2024-02-14T03:42:05;94864.47;;;5.70;38.57
77366;BME280;66430;50.182;11.704;2024-02-14T03:44:31;94865.51;;;5.87;38.59
77366;BME280;66430;50.182;11.704;2024-02-14T03:46:56;94868.20;;;6.20;38.54
77366;BME280;66430;50.182;11.704;2024-02-14T03:49:22;94867.58;;;6.50;38.22
77366;BME280;66430;50.182;11.704;2024-02-14T03:51:47;94870.50;;;6.33;38.40
77366;BME280;66430;50.182;11.704;2024-02-14T03:54:13;94872.62;;;5.63;39.46
77366;BME280;66430;50.182;11.704;2024-02-14T03:56:39;94871.24;;;5.83;38.41
77366;BME280;66430;50.182;11.704;2024-02-14T03:59:04;94874.55;;;5.81;38.85
77366;BME280;66430;50.182;11.704;2024-02-14T04:01:30;94878.56;;;5.70;39.00
77366;BME280;66430;50.182;11.704;2024-02-14T04:03:56;94881.42;;;6.34;38.59
77366;BME280;66430;50.182;11.704;2024-02-14T04:06:21;94886.36;;;5.65;38.52
77366;BME280;66430;50.182;11.704;2024-02-14T04:08:46;94889.33;;;6.21;38.62
77366;BME280;66430;50.182;11.704;2024-02-14T04:11:12;94893.57;;;6.35;38.20
77366;BME280;66430;50.182;11.704;2024-02-14T04:13:37;94897.75;;;6.40;38.03
77366;BME280;66430;50.182;11.704;2024-02-14T04:16:04;94898.57;;;6.38;38.19
77366;BME280;66430;50.182;11.704;2024-02-14T04:18:28;94896.69;;;6.50;37.96
77366;BME280;66430;50.182;11.704;2024-02-14T04:20:54;94895.24;;;6.44;38.12
77366;BME280;66430;50.182;11.704;2024-02-14T04:23:20;94899.18;;;6.29;37.88
77366;BME280;66430;50.182;11.704;2024-02-14T04:25:45;94896.10;;;6.17;38.58
77366;BME280;66430;50.182;11.704;2024-02-14T04:28:11;94890.03;;;6.11;37.98
77366;BME280;66430;50.182;11.704;2024-02-14T04:30:37;94891.14;;;6.26;38.44
77366;BME280;66430;50.182;11.704;2024-02-14T04:33:02;94881.47;;;6.18;38.43
77366;BME280;66430;50.182;11.704;2024-02-14T04:35:28;94874.46;;;6.29;38.49
77366;BME280;66430;50.182;11.704;2024-02-14T04:37:53;94881.65;;;5.80;38.69
77366;BME280;66430;50.182;11.704;2024-02-14T04:40:19;94882.82;;;6.17;38.82
77366;BME280;66430;50.182;11.704;2024-02-14T04:42:44;94879.15;;;5.73;39.33
77366;BME280;66430;50.182;11.704;2024-02-14T04:45:10;94875.09;;;6.00;39.16
77366;BME280;66430;50.182;11.704;2024-02-14T04:47:37;94871.94;;;6.15;38.24
77366;BME280;66430;50.182;11.704;2024-02-14T04:50:01;94870.12;;;6.03;38.46
77366;BME280;66430;50.182;11.704;2024-02-14T04:52:27;94869.17;;;6.22;38.52
77366;BME280;66430;50.182;11.704;2024-02-14T04:54:52;94870.05;;;6.54;38.09
77366;BME280;66430;50.182;11.704;2024-02-14T04:57:18;94867.12;;;5.99;38.82
77366;BME280;66430;50.182;11.704;2024-02-14T04:59:43;94868.57;;;6.15;38.30
77366;BME280;66430;50.182;11.704;2024-02-14T05:02:09;94868.24;;;5.99;38.31
77366;BME280;66430;50.182;11.704;2024-02-14T05:04:34;94867.74;;;6.39;38.18
77366;BME280;66430;50.182;11.704;2024-02-14T05:07:00;94864.12;;;6.58;37.70
77366;BME280;66430;50.182;11.704;2024-02-14T05:09:26;94859.99;;;6.20;37.90
77366;BME280;66430;50.182;11.704;2024-02-14T05:11:51;94867.18;;;6.40;37.87
77366;BME280;66430;50.182;11.704;2024-02-14T05:14:17;94872.87;;;5.89;38.44
77366;BME280;66430;50.182;11.704;2024-02-14T05:16:43;94881.67;;;5.98;38.30
77366;BME280;66430;50.182;11.704;2024-02-14T05:19:08;94882.16;;;6.16;38.04
77366;BME280;66430;50.182;11.704;2024-02-14T05:21:33;94885.77;;;6.12;38.24
77366;BME280;66430;50.182;11.704;2024-02-14T05:23:59;94890.51;;;6.28;38.50
77366;BME280;66430;50.182;11.704;2024-02-14T05:26:25;94893.38;;;5.95;38.71
77366;BME280;66430;50.182;11.704;2024-02-14T05:28:50;94894.05;;;6.21;38.79
77366;BME280;66430;50.182;11.704;2024-02-14T05:31:17;94896.89;;;5.99;39.37
77366;BME280;66430;50.182;11.704;2024-02-14T05:33:43;94897.64;;;6.32;38.57
77366;BME280;66430;50.182;11.704;2024-02-14T05:36:07;94899.24;;;6.00;39.43
77366;BME280;66430;50.182;11.704;2024-02-14T05:38:32;94894.83;;;5.91;39.72
77366;BME280;66430;50.182;11.704;2024-02-14T05:40:58;94889.22;;;6.06;39.02
77366;BME280;66430;50.182;11.704;2024-02-14T05:43:23;94888.39;;;6.15;38.85
77366;BME280;66430;50.182;11.704;2024-02-14T05:45:49;94895.62;;;5.94;38.95
77366;BME280;66430;50.182;11.704;2024-02-14T05:48:15;94879.34;;;5.92;39.15
77366;BME280;66430;50.182;11.704;2024-02-14T05:50:40;94879.96;;;5.93;39.41
77366;BME280;66430;50.182;11.704;2024-02-14T05:53:05;94881.54;;;5.33;39.89
77366;BME280;66430;50.182;11.704;2024-02-14T05:55:31;94880.68;;;5.57;39.71
77366;BME280;66430;50.182;11.704;2024-02-14T05:57:56;94887.59;;;6.01;39.44
77366;BME280;66430;50.182;11.704;2024-02-14T06:00:22;94888.73;;;5.89;39.22
77366;BME280;66430;50.182;11.704;2024-02-14T06:02:48;94889.41;;;6.33;39.74
77366;BME280;66430;50.182;11.704;2024-02-14T06:05:16;94892.53;;;6.24;39.28
77366;BME280;66430;50.182;11.704;2024-02-14T06:07:39;94898.83;;;6.37;39.08
77366;BME280;66430;50.182;11.704;2024-02-14T06:10:06;94902.71;;;6.44;39.07
77366;BME280;66430;50.182;11.704;2024-02-14T06:12:30;94904.86;;;6.60;39.28
77366;BME280;66430;50.182;11.704;2024-02-14T06:14:56;94904.92;;;6.50;39.70
77366;BME280;66430;50.182;11.704;2024-02-14T06:17:21;94908.69;;;5.88;39.73
77366;BME280;66430;50.182;11.704;2024-02-14T06:19:47;94905.13;;;6.05;39.73
77366;BME280;66430;50.182;11.704;2024-02-14T06:22:12;94903.67;;;5.92;39.60
77366;BME280;66430;50.182;11.704;2024-02-14T06:24:38;94905.35;;;6.13;39.35
77366;BME280;66430;50.182;11.704;2024-02-14T06:27:04;94904.05;;;6.07;39.40
77366;BME280;66430;50.182;11.704;2024-02-14T06:29:30;94905.17;;;6.38;38.90
77366;BME280;66430;50.182;11.704;2024-02-14T06:31:55;94901.43;;;6.37;39.57
77366;BME280;66430;50.182;11.704;2024-02-14T06:34:20;94898.87;;;6.43;39.60
77366;BME280;66430;50.182;11.704;2024-02-14T06:36:46;94903.33;;;6.07;39.74
77366;BME280;66430;50.182;11.704;2024-02-14T06:39:11;94904.31;;;5.72;39.99
77366;BME280;66430;50.182;11.704;2024-02-14T06:41:36;94902.95;;;6.55;39.24
77366;BME280;66430;50.182;11.704;2024-02-14T06:44:05;94898.92;;;6.21;39.17
77366;BME280;66430;50.182;11.704;2024-02-14T06:46:27;94900.62;;;6.08;39.63
77366;BME280;66430;50.182;11.704;2024-02-14T06:48:53;94903.39;;;6.63;38.94
77366;BME280;66430;50.182;11.704;2024-02-14T06:51:19;94902.91;;;5.92;39.57
77366;BME280;66430;50.182;11.704;2024-02-14T06:53:44;94903.74;;;6.39;39.17
77366;BME280;66430;50.182;11.704;2024-02-14T06:56:10;94905.38;;;6.76;39.36
77366;BME280;66430;50.182;11.704;2024-02-14T06:58:36;94906.57;;;6.60;39.41
77366;BME280;66430;50.182;11.704;2024-02-14T07:01:01;94910.29;;;6.63;39.43
77366;BME280;66430;50.182;11.704;2024-02-14T07:03:27;94911.22;;;6.13;40.03
77366;BME280;66430;50.182;11.704;2024-02-14T07:05:52;94913.86;;;7.05;39.26
77366;BME280;66430;50.182;11.704;2024-02-14T07:08:20;94912.26;;;6.65;39.51
77366;BME280;66430;50.182;11.704;2024-02-14T07:10:44;94912.99;;;6.89;39.31
77366;BME280;66430;50.182;11.704;2024-02-14T07:13:08;94917.07;;;6.86;39.58
77366;BME280;66430;50.182;11.704;2024-02-14T07:15:34;94920.98;;;6.75;39.79
77366;BME280;66430;50.182;11.704;2024-02-14T07:18:00;94918.76;;;6.92;39.57
77366;BME280;66430;50.182;11.704;2024-02-14T07:20:25;94916.92;;;6.89;39.82
77366;BME280;66430;50.182;11.704;2024-02-14T07:22:52;94921.31;;;7.23;39.39
77366;BME280;66430;50.182;11.704;2024-02-14T07:25:17;94915.18;;;6.94;39.78
77366;BME280;66430;50.182;11.704;2024-02-14T07:27:42;94913.44;;;7.29;39.20
77366;BME280;66430;50.182;11.704;2024-02-14T07:30:08;94912.44;;;7.24;39.36
77366;BME280;66430;50.182;11.704;2024-02-14T07:32:32;94911.81;;;7.13;39.37
77366;BME280;66430;50.182;11.704;2024-02-14T07:34:58;94916.08;;;7.59;39.14
77366;BME280;66430;50.182;11.704;2024-02-14T07:37:24;94914.56;;;7.17;39.41
77366;BME280;66430;50.182;11.704;2024-02-14T07:39:49;94921.85;;;6.97;39.90
77366;BME280;66430;50.182;11.704;2024-02-14T07:42:14;94922.12;;;7.72;39.32
77366;BME280;66430;50.182;11.704;2024-02-14T07:44:45;94927.53;;;7.90;39.24
77366;BME280;66430;50.182;11.704;2024-02-14T07:47:05;94928.02;;;7.48;39.46
77366;BME280;66430;50.182;11.704;2024-02-14T07:49:31;94929.23;;;7.67;39.46
77366;BME280;66430;50.182;11.704;2024-02-14T07:51:57;94927.71;;;7.60;39.53
77366;BME280;66430;50.182;11.704;2024-02-14T07:54:22;94927.44;;;8.03;39.59
77366;BME280;66430;50.182;11.704;2024-02-14T07:56:47;94925.15;;;7.96;39.19
77366;BME280;66430;50.182;11.704;2024-02-14T07:59:18;94929.39;;;7.75;39.26
77366;BME280;66430;50.182;11.704;2024-02-14T08:01:39;94931.23;;;7.78;39.42
77366;BME280;66430;50.182;11.704;2024-02-14T08:04:04;94935.24;;;7.75;40.01
77366;BME280;66430;50.182;11.704;2024-02-14T08:06:30;94936.26;;;7.49;39.73
77366;BME280;66430;50.182;11.704;2024-02-14T08:08:56;94937.53;;;7.54;39.64
77366;BME280;66430;50.182;11.704;2024-02-14T08:11:21;94933.37;;;7.79;39.27
77366;BME280;66430;50.182;11.704;2024-02-14T08:13:46;94937.79;;;8.03;39.48
77366;BME280;66430;50.182;11.704;2024-02-14T08:16:12;94940.23;;;7.84;39.62
77366;BME280;66430;50.182;11.704;2024-02-14T08:18:38;94947.07;;;7.11;40.48
77366;BME280;66430;50.182;11.704;2024-02-14T08:21:03;94945.77;;;7.36;40.53
77366;BME280;66430;50.182;11.704;2024-02-14T08:23:29;94949.90;;;7.70;40.09
77366;BME280;66430;50.182;11.704;2024-02-14T08:25:54;94959.97;;;7.20;41.25
77366;BME280;66430;50.182;11.704;2024-02-14T08:28:20;94958.22;;;7.83;40.75
77366;BME280;66430;50.182;11.704;2024-02-14T08:30:45;94952.70;;;7.73;40.86
77366;BME280;66430;50.182;11.704;2024-02-14T08:33:10;94955.17;;;7.24;41.76
77366;BME280;66430;50.182;11.704;2024-02-14T08:35:36;94958.51;;;7.63;41.14
77366;BME280;66430;50.182;11.704;2024-02-14T08:38:02;94962.32;;;7.60;40.86
77366;BME280;66430;50.182;11.704;2024-02-14T08:40:27;94969.54;;;8.38;40.73
77366;BME280;66430;50.182;11.704;2024-02-14T08:42:53;94973.61;;;8.41;40.43
77366;BME280;66430;50.182;11.704;2024-02-14T08:45:19;94970.23;;;7.78;40.44
77366;BME280;66430;50.182;11.704;2024-02-14T08:47:44;94969.41;;;8.59;40.37
77366;BME280;66430;50.182;11.704;2024-02-14T08:50:10;94972.83;;;7.93;40.75
77366;BME280;66430;50.182;11.704;2024-02-14T08:52:35;94973.73;;;7.56;41.36
77366;BME280;66430;50.182;11.704;2024-02-14T08:55:01;94973.10;;;8.23;40.62
77366;BME280;66430;50.182;11.704;2024-02-14T08:57:25;94968.38;;;8.33;40.64
77366;BME280;66430;50.182;11.704;2024-02-14T08:59:51;94962.82;;;8.06;40.59
77366;BME280;66430;50.182;11.704;2024-02-14T09:02:17;94963.17;;;7.70;41.30
77366;BME280;66430;50.182;11.704;2024-02-14T09:04:43;94965.82;;;8.24;40.67
77366;BME280;66430;50.182;11.704;2024-02-14T09:07:08;94966.42;;;7.76;41.12
77366;BME280;66430;50.182;11.704;2024-02-14T09:09:33;94964.98;;;7.54;41.72
77366;BME280;66430;50.182;11.704;2024-02-14T09:11:59;94969.47;;;8.25;41.67
77366;BME280;66430;50.182;11.704;2024-02-14T09:14:25;94972.03;;;7.73;42.57
77366;BME280;66430;50.182;11.704;2024-02-14T09:16:55;94966.77;;;8.00;42.37
77366;BME280;66430;50.182;11.704;2024-02-14T09:19:15;94960.38;;;7.75;42.51
77366;BME280;66430;50.182;11.704;2024-02-14T09:21:41;94965.17;;;8.05;42.19
77366;BME280;66430;50.182;11.704;2024-02-14T09:24:07;94963.51;;;7.73;42.06
77366;BME280;66430;50.182;11.704;2024-02-14T09:26:32;94971.11;;;8.49;41.86
77366;BME280;66430;50.182;11.704;2024-02-14T09:28:58;94970.44;;;7.88;42.11
77366;BME280;66430;50.182;11.704;2024-02-14T09:31:23;94972.17;;;8.25;42.04
77366;BME280;66430;50.182;11.704;2024-02-14T09:33:48;94970.78;;;7.95;42.15
77366;BME280;66430;50.182;11.704;2024-02-14T09:36:14;94972.56;;;8.14;41.95
77366;BME280;66430;50.182;11.704;2024-02-14T09:38:39;94976.93;;;8.31;41.77
77366;BME280;66430;50.182;11.704;2024-02-14T09:41:14;94979.11;;;8.09;41.86
77366;BME280;66430;50.182;11.704;2024-02-14T09:43:34;94980.45;;;8.11;42.72
77366;BME280;66430;50.182;11.704;2024-02-14T09:45:56;94978.53;;;8.43;41.69
77366;BME280;66430;50.182;11.704;2024-02-14T09:48:21;94979.32;;;8.06;41.59
77366;BME280;66430;50.182;11.704;2024-02-14T09:50:48;94978.26;;;8.23;41.41
77366;BME280;66430;50.182;11.704;2024-02-14T09:53:12;94989.66;;;8.22;41.25
77366;BME280;66430;50.182;11.704;2024-02-14T09:55:38;94991.67;;;8.52;41.25
77366;BME280;66430;50.182;11.704;2024-02-14T09:58:04;94987.14;;;8.38;41.52
77366;BME280;66430;50.182;11.704;2024-02-14T10:00:28;94992.21;;;8.28;41.79
77366;BME280;66430;50.182;11.704;2024-02-14T10:02:55;94992.11;;;8.77;41.75
77366;BME280;66430;50.182;11.704;2024-02-14T10:05:19;94993.34;;;8.77;41.36
77366;BME280;66430;50.182;11.704;2024-02-14T10:07:45;94996.40;;;8.19;41.67
77366;BME280;66430;50.182;11.704;2024-02-14T10:10:11;94990.94;;;8.35;41.86
77366;BME280;66430;50.182;11.704;2024-02-14T10:12:36;94991.77;;;8.09;42.38
77366;BME280;66430;50.182;11.704;2024-02-14T10:15:02;94994.20;;;8.42;42.19
77366;BME280;66430;50.182;11.704;2024-02-14T10:17:26;94993.33;;;8.22;42.24
77366;BME280;66430;50.182;11.704;2024-02-14T10:19:57;94991.35;;;8.50;41.76
77366;BME280;66430;50.182;11.704;2024-02-14T10:22:17;94993.21;;;8.81;41.57
77366;BME280;66430;50.182;11.704;2024-02-14T10:24:43;94996.95;;;8.12;42.23
77366;BME280;66430;50.182;11.704;2024-02-14T10:27:12;94992.77;;;8.47;42.27
77366;BME280;66430;50.182;11.704;2024-02-14T10:29:34;94990.74;;;8.55;41.94
77366;BME280;66430;50.182;11.704;2024-02-14T10:32:00;94990.90;;;8.64;41.81
77366;BME280;66430;50.182;11.704;2024-02-14T10:34:26;94990.54;;;8.46;42.05
77366;BME280;66430;50.182;11.704;2024-02-14T10:36:52;94981.65;;;9.03;41.78
77366;BME280;66430;50.182;11.704;2024-02-14T10:39:17;94982.89;;;8.57;42.03
77366;BME280;66430;50.182;11.704;2024-02-14T10:41:43;94980.88;;;8.57;42.05
77366;BME280;66430;50.182;11.704;2024-02-14T10:44:07;94983.84;;;8.77;41.85
77366;BME280;66430;50.182;11.704;2024-02-14T10:46:35;94973.69;;;8.74;42.09
77366;BME280;66430;50.182;11.704;2024-02-14T10:49:01;94972.44;;;7.49;41.89
77366;BME280;66430;50.182;11.704;2024-02-14T10:51:25;94971.28;;;8.47;41.78
77366;BME280;66430;50.182;11.704;2024-02-14T10:53:49;94980.96;;;8.98;41.54
77366;BME280;66430;50.182;11.704;2024-02-14T10:56:18;94987.24;;;8.76;42.03
77366;BME280;66430;50.182;11.704;2024-02-14T10:58:41;94988.59;;;9.00;41.79
77366;BME280;66430;50.182;11.704;2024-02-14T11:01:06;94991.32;;;9.09;41.60
77366;BME280;66430;50.182;11.704;2024-02-14T11:03:31;94987.25;;;8.81;42.44
77366;BME280;66430;50.182;11.704;2024-02-14T11:06:01;94987.69;;;8.83;42.33
77366;BME280;66430;50.182;11.704;2024-02-14T11:08:22;94990.29;;;8.88;43.20
77366;BME280;66430;50.182;11.704;2024-02-14T11:10:54;94988.15;;;8.68;42.60
77366;BME280;66430;50.182;11.704;2024-02-14T11:13:13;94991.33;;;8.67;42.55
77366;BME280;66430;50.182;11.704;2024-02-14T11:15:39;94986.40;;;8.75;42.31
77366;BME280;66430;50.182;11.704;2024-02-14T11:18:06;94981.92;;;8.84;42.50
77366;BME280;66430;50.182;11.704;2024-02-14T11:20:35;94982.82;;;8.93;41.88
77366;BME280;66430;50.182;11.704;2024-02-14T11:22:57;94981.81;;;8.97;42.33
77366;BME280;66430;50.182;11.704;2024-02-14T11:25:23;94980.05;;;8.90;42.33
77366;BME280;66430;50.182;11.704;2024-02-14T11:27:46;94973.08;;;8.64;42.46
77366;BME280;66430;50.182;11.704;2024-02-14T11:30:13;94974.36;;;8.98;42.07
77366;BME280;66430;50.182;11.704;2024-02-14T11:32:38;94975.99;;;9.20;41.71
77366;BME280;66430;50.182;11.704;2024-02-14T11:35:03;94975.74;;;9.23;41.79
77366;BME280;66430;50.182;11.704;2024-02-14T11:37:28;94977.62;;;9.36;41.57
77366;BME280;66430;50.182;11.704;2024-02-14T11:39:54;94977.36;;;9.15;41.93
77366;BME280;66430;50.182;11.704;2024-02-14T11:42:21;94981.06;;;9.10;42.24
77366;BME280;66430;50.182;11.704;2024-02-14T11:44:46;94980.76;;;9.03;42.29
77366;BME280;66430;50.182;11.704;2024-02-14T11:47:10;94981.49;;;9.21;42.42
77366;BME280;66430;50.182;11.704;2024-02-14T11:49:36;94978.04;;;9.25;42.26
77366;BME280;66430;50.182;11.704;2024-02-14T11:52:01;94978.71;;;9.11;42.20
77366;BME280;66430;50.182;11.704;2024-02-14T11:54:26;94979.35;;;9.09;42.04
77366;BME280;66430;50.182;11.704;2024-02-14T11:56:52;94977.71;;;9.19;42.19
77366;BME280;66430;50.182;11.704;2024-02-14T11:59:17;94976.33;;;8.96;43.00
77366;BME280;66430;50.182;11.704;2024-02-14T12:01:44;94982.46;;;9.17;42.38
77366;BME280;66430;50.182;11.704;2024-02-14T12:04:09;94979.95;;;8.74;43.17
77366;BME280;66430;50.182;11.704;2024-02-14T12:06:34;94984.53;;;9.05;42.75
77366;BME280;66430;50.182;11.704;2024-02-14T12:08:59;94984.36;;;8.88;42.97
77366;BME280;66430;50.182;11.704;2024-02-14T12:11:25;94979.47;;;8.85;42.97
77366;BME280;66430;50.182;11.704;2024-02-14T12:13:50;94982.40;;;9.39;42.68
77366;BME280;66430;50.182;11.704;2024-02-14T12:16:15;94983.22;;;9.75;42.10
77366;BME280;66430;50.182;11.704;2024-02-14T12:18:41;94979.66;;;9.67;41.92
77366;BME280;66430;50.182;11.704;2024-02-14T12:21:08;94982.41;;;8.96;42.47
77366;BME280;66430;50.182;11.704;2024-02-14T12:23:31;94986.26;;;9.01;42.68
77366;BME280;66430;50.182;11.704;2024-02-14T12:26:02;94985.24;;;9.47;42.18
77366;BME280;66430;50.182;11.704;2024-02-14T12:28:23;94984.60;;;9.29;42.48
77366;BME280;66430;50.182;11.704;2024-02-14T12:30:51;94988.62;;;9.82;42.07
77366;BME280;66430;50.182;11.704;2024-02-14T12:33:14;94989.63;;;9.79;41.94
77366;BME280;66430;50.182;11.704;2024-02-14T12:35:48;94992.03;;;9.69;42.05
77366;BME280;66430;50.182;11.704;2024-02-14T12:38:06;94990.52;;;9.66;41.69
77366;BME280;66430;50.182;11.704;2024-02-14T12:40:31;94991.79;;;10.10;42.08
77366;BME280;66430;50.182;11.704;2024-02-14T12:42:56;94988.30;;;9.88;42.14
77366;BME280;66430;50.182;11.704;2024-02-14T12:45:21;94984.58;;;10.00;41.80
77366;BME280;66430;50.182;11.704;2024-02-14T12:47:47;94980.24;;;9.86;42.08
77366;BME280;66430;50.182;11.704;2024-02-14T12:50:14;94980.59;;;10.09;42.10